Flight Track Log - Related Links

Times and Time Zones

All times are in EDT time to prevent confusion due to time zone crossing. See the UPS1083 flight status page for this flight to view local times or setup timezone preferences in your user account.

Time Position Orientation Groundspeed Altitude Reporting Facility
EDT Latitude Longitude Course Direction KTS MPH feet Rate Location/Type
Wed 10:44:49 PM 40.7010 -74.1640 206° Southwest 154 177 900  Level FlightAware ADS-B
Wed 10:45:05 PM 40.7100 -74.1530 43° Northeast 168 193 1,400 2,057 Climbing FlightAware ADS-B
Wed 10:45:59 PM 40.7535 -74.1105 37° Northeast 248 285 3,300 2,597 Climbing FlightAware ADS-B
Wed 10:46:12 PM 40.7679 -74.1157 345° North 244 281 4,300 4,588 Climbing FlightAware ADS-B
Wed 10:46:16 PM 40.7713 -74.1184 329° Northwest 241 277 4,600 4,667 Climbing FlightAware ADS-B
Wed 10:46:21 PM 40.7757 -74.1234 319° Northwest 239 275 5,000 4,364 Climbing FlightAware ADS-B
Wed 10:46:27 PM 40.7796 -74.1298 309° West 240 276 5,400 4,000 Climbing FlightAware ADS-B
Wed 10:46:30 PM 40.7819 -74.1347 302° West 242 278 5,600 3,429 Climbing FlightAware ADS-B
Wed 10:46:34 PM 40.7838 -74.1399 296° West 246 283 5,800 3,333 Climbing FlightAware ADS-B
Wed 10:46:39 PM 40.7856 -74.1472 288° West 249 287 6,100 3,333 Climbing FlightAware ADS-B
Wed 10:46:43 PM 40.7864 -74.1532 280° West 252 290 6,300 3,000 Climbing FlightAware ADS-B
Wed 10:46:47 PM 40.7867 -74.1586 274° West 254 292 6,500 3,333 Climbing FlightAware ADS-B
Wed 10:46:52 PM 40.7867 -74.1666 270° West 257 296 6,800 3,474 Climbing FlightAware ADS-B
Wed 10:47:06 PM 40.7855 -74.1886 266° West 262 302 7,600 2,483 Climbing FlightAware ADS-B
Wed 10:47:21 PM 40.7839 -74.2123 265° West 259 298 8,000 1,000 Climbing FlightAware ADS-B
Wed 10:47:36 PM 40.7823 -74.2363 265° West 259 298 8,100 387 Climbing FlightAware ADS-B
Wed 10:47:52 PM 40.7807 -74.2608 265° West 261 300 8,200 1,222 Climbing FlightAware ADS-B
Wed 10:48:30 PM 40.7762 -74.3210 264° West 261 300 9,200 2,108 Climbing FlightAware ADS-B
Wed 10:49:06 PM 40.7640 -74.3782 254° West 261 300 10,800 2,286 Climbing FlightAware ADS-B
Wed 10:49:33 PM 40.7488 -74.4230 246° West 319 367 11,600 2,047 Climbing FlightAware ADS-B
Wed 10:50:31 PM 40.7120 -74.5330 246° West 369 425 13,700 2,364 Climbing FlightAware ADS-B
Wed 10:50:39 PM 40.7057 -74.5519 246° West 370 426 14,200 3,286 Climbing FlightAware ADS-B
Wed 10:51:13 PM 40.6830 -74.6220 247° West 375 432 16,000 2,800 Climbing FlightAware ADS-B
Wed 10:51:54 PM 40.6550 -74.7110 248° West 394 453 17,700 2,581 Climbing FlightAware ADS-B
Wed 10:52:39 PM 40.6240 -74.8040 246° West 402 463 19,700 2,612 Climbing FlightAware ADS-B
Wed 10:53:19 PM 40.5930 -74.9010 247° West 412 474 21,400 2,325 Climbing FlightAware ADS-B
Wed 10:53:59 PM 40.5610 -74.9940 246° West 426 490 22,800 2,400 Climbing FlightAware ADS-B
Wed 10:54:44 PM 40.5260 -75.1020 247° West 426 490 24,800 2,318 Climbing FlightAware ADS-B
Wed 10:55:27 PM 40.4910 -75.2040 246° West 437 503 26,200 1,880 Climbing FlightAware ADS-B
Wed 10:56:07 PM 40.4590 -75.3020 247° West 443 510 27,400 1,610 Climbing FlightAware ADS-B
Wed 10:56:49 PM 40.4230 -75.4070 246° West 457 526 28,400 1,465 Climbing FlightAware ADS-B
Wed 10:57:33 PM 40.3850 -75.5200 246° West 466 536 29,500 1,778 Climbing FlightAware ADS-B
Wed 10:58:10 PM 40.3530 -75.6160 246° West 466 536 30,800 2,786 Climbing FlightAware ADS-B
Wed 10:58:57 PM 40.3120 -75.7330 245° Southwest 438 504 33,400 2,621 Climbing FlightAware ADS-B
Wed 10:59:37 PM 40.2790 -75.8290 246° West 433 498 34,600 1,389 Climbing FlightAware ADS-B
Wed 11:00:32 PM 40.2340 -75.9610 246° West 440 506 35,600 1,080 Climbing FlightAware ADS-B
Wed 11:01:17 PM 40.1970 -76.0700 246° West 445 512 36,400 977 Climbing FlightAware ADS-B
Wed 11:01:58 PM 40.1620 -76.1730 246° West 447 514 37,000 975 Climbing FlightAware ADS-B
Wed 11:02:37 PM 40.1290 -76.2660 245° Southwest 448 516 37,700 723 Climbing FlightAware ADS-B
Wed 11:03:21 PM 40.0840 -76.3710 241° Southwest 452 520 38,000 205 Climbing FlightAware ADS-B
Wed 11:04:05 PM 40.0360 -76.4740 239° Southwest 451 519 38,000  Level FlightAware ADS-B
Wed 11:04:45 PM 39.9930 -76.5670 239° Southwest 451 519 38,000  Level FlightAware ADS-B
Wed 11:05:42 PM 39.9310 -76.7000 239° Southwest 451 519 38,000  Level FlightAware ADS-B
Wed 11:06:23 PM 39.9030 -76.7620 240° Southwest 452 520 38,000  Level FlightAware ADS-B
Wed 11:07:06 PM 39.8410 -76.8940 239° Southwest 451 519 38,000  Level FlightAware ADS-B
Wed 11:07:47 PM 39.7960 -76.9890 238° Southwest 451 519 38,000  Level FlightAware ADS-B
Wed 11:08:27 PM 39.7530 -77.0800 238° Southwest 447 514 38,000  Level FlightAware ADS-B
Wed 11:09:08 PM 39.7090 -77.1740 239° Southwest 439 505 38,000  Level FlightAware ADS-B
Wed 11:09:55 PM 39.6600 -77.2770 238° Southwest 433 498 38,000  Level FlightAware ADS-B
Wed 11:10:27 PM 39.6250 -77.3490 238° Southwest 430 495 38,000  Level FlightAware ADS-B
Wed 11:11:29 PM 39.5620 -77.4820 238° Southwest 429 494 38,000  Level FlightAware ADS-B
Wed 11:12:14 PM 39.5170 -77.5760 238° Southwest 435 501 38,000  Level FlightAware ADS-B
Wed 11:12:55 PM 39.4700 -77.6740 238° Southwest 440 506 38,000  Level FlightAware ADS-B
Wed 11:13:36 PM 39.4280 -77.7600 238° Southwest 442 509 38,000  Level FlightAware ADS-B
Wed 11:14:19 PM 39.3800 -77.8610 238° Southwest 435 501 38,000  Level FlightAware ADS-B
Wed 11:15:03 PM 39.3400 -77.9620 243° Southwest 432 497 38,000  Level FlightAware ADS-B
Wed 11:15:57 PM 39.2910 -78.0870 243° Southwest 431 496 38,000  Level FlightAware ADS-B
Wed 11:16:38 PM 39.2550 -78.1770 243° Southwest 431 496 38,000  Level FlightAware ADS-B
Wed 11:17:22 PM 39.2130 -78.2820 243° Southwest 429 494 38,000  Level FlightAware ADS-B
Wed 11:17:54 PM 39.1840 -78.3550 243° Southwest 428 493 38,000  Level FlightAware ADS-B
Wed 11:18:36 PM 39.1460 -78.4500 243° Southwest 430 495 38,000  Level FlightAware ADS-B
Wed 11:19:22 PM 39.1050 -78.5520 243° Southwest 432 497 38,000  Level FlightAware ADS-B
Wed 11:20:02 PM 39.0670 -78.6460 243° Southwest 436 502 38,000  Level FlightAware ADS-B
Wed 11:20:44 PM 39.0270 -78.7440 242° Southwest 440 506 38,000 73 Level FlightAware ADS-B
Wed 11:21:24 PM 38.9910 -78.8320 242° Southwest 442 509 38,100 79 Climbing FlightAware ADS-B
Wed 11:22:00 PM 38.9550 -78.9200 242° Southwest 445 512 38,100 -69 Level FlightAware ADS-B
Wed 11:22:51 PM 38.9070 -79.0360 242° Southwest 448 516 38,000 -65 Descending FlightAware ADS-B
Wed 11:23:33 PM 38.8640 -79.1370 241° Southwest 450 518 38,000  Level FlightAware ADS-B
Wed 11:24:13 PM 38.8230 -79.2280 240° Southwest 448 516 38,000  Level FlightAware ADS-B
Wed 11:24:57 PM 38.7770 -79.3290 240° Southwest 447 514 38,000  Level FlightAware ADS-B
Wed 11:25:38 PM 38.7370 -79.4160 240° Southwest 445 512 38,000  Level FlightAware ADS-B
Wed 11:26:21 PM 38.6920 -79.5170 240° Southwest 440 506 38,000  Level FlightAware ADS-B
Wed 11:27:01 PM 38.6590 -79.6120 246° West 435 501 38,000  Level FlightAware ADS-B
Wed 11:27:41 PM 38.6270 -79.7090 247° West 435 501 38,000  Level FlightAware ADS-B
Wed 11:28:27 PM 38.6030 -79.8060 252° West 426 490 38,000  Level FlightAware ADS-B
Wed 11:29:39 PM 38.5770 -79.9690 259° West 430 495 38,000 53 Level FlightAware ADS-B
Wed 11:30:20 PM 38.5590 -80.0860 259° West 443 510 38,100  Climbing FlightAware ADS-B
Wed 11:31:13 PM 38.5320 -80.2460 258° West 452 520 38,000 -59 Descending FlightAware ADS-B
Wed 11:32:02 PM 38.5110 -80.3730 258° West 446 513 38,000  Level FlightAware ADS-B
Wed 11:32:45 PM 38.4920 -80.4820 257° West 439 505 38,000  Level FlightAware ADS-B
Wed 11:33:29 PM 38.4740 -80.5950 259° West 435 501 38,000  Level FlightAware ADS-B
Wed 11:34:09 PM 38.4570 -80.6950 258° West 437 503 38,000  Level FlightAware ADS-B
Wed 11:34:51 PM 38.4400 -80.8000 258° West 441 507 38,000  Level FlightAware ADS-B
Wed 11:35:35 PM 38.4200 -80.9130 257° West 443 510 38,000  Level FlightAware ADS-B
Wed 11:36:13 PM 38.4040 -81.0110 258° West 446 513 38,000  Level FlightAware ADS-B
Wed 11:36:55 PM 38.3860 -81.1120 257° West 447 514 38,000 71 Level FlightAware ADS-B
Wed 11:37:37 PM 38.3670 -81.2250 258° West 445 512 38,100  Climbing FlightAware ADS-B
Wed 11:38:21 PM 38.3470 -81.3400 258° West 446 513 38,000 -71 Descending FlightAware ADS-B
Wed 11:39:01 PM 38.3290 -81.4400 257° West 447 514 38,000  Level FlightAware ADS-B
Wed 11:39:22 PM 38.3196 -81.4950 258° West 449 517 38,000  Level FlightAware ADS-B
Wed 11:40:26 PM 38.2905 -81.6596 257° West 449 517 38,000 -336 Level FlightAware ADS-B
Wed 11:41:09 PM 38.2710 -81.7700 257° West 456 525 37,400 -867 Descending FlightAware ADS-B
Wed 11:41:49 PM 38.2520 -81.8760 257° West 452 520 36,800 -929 Descending FlightAware ADS-B
Wed 11:42:33 PM 38.2320 -81.9880 257° West 448 516 36,100 -1,000 Descending FlightAware ADS-B
Wed 11:43:13 PM 38.2140 -82.0900 257° West 446 513 35,400 -1,024 Descending FlightAware ADS-B
Wed 11:43:55 PM 38.1940 -82.1980 257° West 441 507 34,700 -955 Descending FlightAware ADS-B
Wed 11:44:41 PM 38.1730 -82.3130 257° West 440 506 34,000 -903 Descending FlightAware ADS-B
Wed 11:45:28 PM 38.1520 -82.4290 257° West 444 511 33,300 -1,000 Descending FlightAware ADS-B
Wed 11:46:17 PM 38.1270 -82.5580 256° West 450 518 32,400 -876 Descending FlightAware ADS-B
Wed 11:46:57 PM 38.1080 -82.6600 257° West 451 519 32,000 -286 Descending FlightAware ADS-B
Wed 11:47:41 PM 38.0880 -82.7710 257° West 456 525 32,000  Level FlightAware ADS-B
Wed 11:48:21 PM 38.0680 -82.8780 257° West 456 525 32,000  Level FlightAware ADS-B
Wed 11:49:07 PM 38.0470 -82.9820 256° West 456 525 32,000  Level FlightAware ADS-B
Wed 11:49:39 PM 38.0287 -83.0795 257° West 456 525 32,000  Level FlightAware ADS-B
Wed 11:50:22 PM 38.0150 -83.1480 256° West 456 525 32,000  Level FlightAware ADS-B
Wed 11:51:11 PM 37.9930 -83.2560 256° West 456 525 32,000  Level FlightAware ADS-B
Wed 11:51:47 PM 37.9780 -83.3360 257° West 456 525 32,000  Level FlightAware ADS-B
Wed 11:52:33 PM 37.9580 -83.4370 256° West 456 525 32,000 -1,748 Level FlightAware ADS-B
Wed 11:54:18 PM 37.8873 -83.8117 257° West 471 542 27,600 -2,132 Descending FlightAware ADS-B
Wed 11:58:53 PM 37.7470 -84.5050 256° West 413 475 18,500 -2,044 Descending FlightAware ADS-B
Wed 11:59:35 PM 37.7270 -84.6030 256° West 403 464 16,800 -1,556 Descending FlightAware ADS-B
Thu 12:00:14 AM 37.7130 -84.6740 256° West 402 463 16,400 -312 Descending FlightAware ADS-B
Thu 12:00:52 AM 37.6970 -84.7470 255° West 402 463 16,400  Level FlightAware ADS-B
Thu 12:01:41 AM 37.6770 -84.8420 255° West 402 463 16,400  Level FlightAware ADS-B
Thu 12:02:17 AM 37.6620 -84.9110 255° West 402 463 16,400  Level FlightAware ADS-B
Thu 12:03:06 AM 37.6420 -85.0060 255° West 402 463 16,400  Level FlightAware ADS-B
Thu 12:03:43 AM 37.6270 -85.0770 255° West 402 463 16,400 -2,439 Level FlightAware ADS-B
Thu 12:05:41 AM 37.8830 -85.2680 330° Northwest 261 300 10,100 -2,408 Descending FlightAware ADS-B
Thu 12:06:20 AM 37.9100 -85.3060 312° West 260 299 10,100  Level FlightAware ADS-B
Thu 12:07:18 AM 37.9500 -85.3620 312° West 260 299 10,100 -1,481 Level FlightAware ADS-B
Thu 12:07:41 AM 37.9780 -85.4010 312° West 249 287 8,100 -3,184 Descending FlightAware ADS-B
Thu 12:08:07 AM 37.9970 -85.4280 312° West 251 289 7,500 -1,258 Descending FlightAware ADS-B
Thu 12:08:43 AM 38.0250 -85.4660 313° West 241 277 6,800 -1,200 Descending FlightAware ADS-B
Thu 12:08:57 AM 38.0370 -85.4820 314° West 237 273 6,500 -1,350 Descending FlightAware ADS-B
Thu 12:09:23 AM 38.0560 -85.5100 311° West 236 272 5,900 -1,320 Descending FlightAware ADS-B
Thu 12:09:47 AM 38.0720 -85.5330 311° West 235 270 5,400 -857 Descending FlightAware ADS-B
Thu 12:10:19 AM 38.0970 -85.5670 313° West 240 276 5,100 -290 Descending FlightAware ADS-B
Thu 12:10:49 AM 38.1260 -85.5890 329° Northwest 257 296 5,100  Level FlightAware ADS-B
Thu 12:11:30 AM 38.1710 -85.6100 340° North 255 293 5,100  Level FlightAware ADS-B
Thu 12:11:43 AM 38.1860 -85.6170 340° North 255 293 5,100  Level FlightAware ADS-B
Thu 12:12:11 AM 38.2180 -85.6310 341° North 261 300 5,100 -566 Level FlightAware ADS-B
Thu 12:12:36 AM 38.2460 -85.6400 346° North 261 300 4,600 -1,071 Descending FlightAware ADS-B
Thu 12:13:07 AM 38.2840 -85.6530 345° North 261 300 4,100 -638 Descending FlightAware ADS-B
Thu 12:13:23 AM 38.3020 -85.6600 343° North 261 300 4,100  Level FlightAware ADS-B
Thu 12:13:51 AM 38.3340 -85.6710 345° North 246 283 4,100  Level FlightAware ADS-B
Thu 12:14:03 AM 38.3430 -85.6810 319° Northwest 206 237 4,100  Level FlightAware ADS-B
Thu 12:14:17 AM 38.3470 -85.6950 290° West 170 196 4,100  Level FlightAware ADS-B
Thu 12:14:48 AM 38.3430 -85.7210 259° West 139 160 4,100  Level FlightAware ADS-B
Thu 12:14:59 AM 38.3400 -85.7300 247° West 140 161 4,100 -286 Level FlightAware ADS-B
Thu 12:15:09 AM 38.3340 -85.7350 213° Southwest 145 167 4,000 -1,256 Descending FlightAware ADS-B
Thu 12:15:42 AM 38.3130 -85.7420 195° South 148 170 3,200 -1,333 Descending FlightAware ADS-B
Thu 12:16:12 AM 38.2930 -85.7510 199° South 149 171 2,600 -667 Descending FlightAware ADS-B
Thu 12:16:36 AM 38.2770 -85.7580 199° South 153 176 2,600 -643 Level FlightAware ADS-B
Thu 12:17:08 AM 38.2560 -85.7540 171° South 146 168 2,000 -964 Descending FlightAware ADS-B
Thu 12:17:32 AM 38.2410 -85.7490 165° South 145 167 1,700 -692 Descending FlightAware ADS-B
Thu 12:18:00 AM 38.2220 -85.7430 166° South 149 171 1,400 -750 Descending FlightAware ADS-B
Thu 12:18:28 AM 38.2030 -85.7370 166° South 145 167 1,000 -724 Descending FlightAware ADS-B
Thu 12:18:58 AM 38.1880 -85.7320 165° South 150 173 700 -600 Descending FlightAware ADS-B
Thu 12:19:40 AM 38.1700 -85.7260 165° South 21 24 -1,000 Descending FlightAware ADS-B
Thu 12:20:54 AM 38.1720 -85.7280 322° Northwest 21 24  Level FlightAware ADS-B
Thu 12:22:46 AM 38.1770 -85.7380 302° West 28 32  Level FlightAware ADS-B
Thu 12:23:00 AM 38.1780 -85.7400 302° West 30 35  Level FlightAware ADS-B
Thu 12:24:24 AM 38.1740 -85.7420 165° South 22 25  Level FlightAware ADS-B

Login

Don't have an account? Register now (free) for customized features, flight alerts, and more!